Time;durP1;ratioP1;P1;durP2;ratioP2;P2;SDS_P1;SDS_P2;PMS_P1;PMS_P2;Temp;Humidity;BMP_temperature;BMP_pressure;BME280_temperature;BME280_humidity;BME280_pressure;Samples;Min_cycle;Max_cycle;Signal;HPM_P1;HPM_P2
2023/12/30 00:02:02;;;;;;;6.97;5.13;;;;;;;9.95;89.10;98013.38;4106894;28;20663;-89
2023/12/30 00:04:15;;;;;;;6.40;4.72;;;;;;;9.97;89.20;98009.75;4110319;28;20639;-91
2023/12/30 00:06:38;;;;;;;7.00;3.60;;;;;;;9.94;89.03;98004.75;4104726;28;20272;-92
2023/12/30 00:08:47;;;;;;;6.40;4.23;;;;;;;9.99;88.70;98005.25;4103635;28;20219;-91
2023/12/30 00:11:10;;;;;;;4.93;3.50;;;;;;;10.02;88.71;97997.25;4111070;28;20605;-88
2023/12/30 00:13:34;;;;;;;6.50;3.70;;;;;;;10.07;88.41;97999.53;4105655;28;20786;-87
2023/12/30 00:15:43;;;;;;;5.73;3.80;;;;;;;10.11;88.82;97991.41;4102969;28;20777;-92
2023/12/30 00:17:47;;;;;;;5.50;3.70;;;;;;;10.12;88.85;97987.88;4105977;28;20750;-93
2023/12/30 00:19:53;;;;;;;5.17;3.67;;;;;;;10.16;89.48;97985.88;4107056;28;20638;-92
2023/12/30 00:22:01;;;;;;;4.90;3.40;;;;;;;10.22;89.50;97981.06;4102698;28;20655;-87
2023/12/30 00:24:21;;;;;;;5.10;3.30;;;;;;;10.28;89.63;97972.84;4108568;28;20781;-92
2023/12/30 00:26:30;;;;;;;4.97;3.50;;;;;;;10.31;89.15;97972.63;4111129;28;21430;-92
2023/12/30 00:28:44;;;;;;;4.07;2.90;;;;;;;10.34;89.39;97964.59;4090729;28;20664;-92
2023/12/30 00:31:02;;;;;;;5.10;3.00;;;;;;;10.31;88.50;97964.81;4096986;28;20720;-90
2023/12/30 00:33:10;;;;;;;4.60;3.00;;;;;;;10.35;88.96;97979.31;4103425;28;20648;-90
2023/12/30 00:35:28;;;;;;;5.70;2.67;;;;;;;10.39;89.71;97985.97;4088172;28;20633;-91
2023/12/30 00:37:34;;;;;;;4.07;2.70;;;;;;;10.36;90.33;97973.16;4086206;28;20620;-89
2023/12/30 00:39:41;;;;;;;5.27;3.00;;;;;;;10.36;89.85;97973.16;4113254;28;20641;-92
2023/12/30 00:41:47;;;;;;;4.80;2.70;;;;;;;10.39;89.95;97981.59;4105774;28;20639;-92
2023/12/30 00:43:51;;;;;;;6.17;3.30;;;;;;;10.44;90.99;97973.44;4089434;28;21124;-90
2023/12/30 00:45:53;;;;;;;3.15;2.42;;;;;;;10.48;91.24;97980.13;4085107;28;20652;-87
2023/12/30 00:47:57;;;;;;;3.90;2.90;;;;;;;10.53;90.07;97973.63;4104865;28;20211;-89
2023/12/30 00:50:01;;;;;;;3.40;2.30;;;;;;;10.58;90.99;97962.88;4100948;28;21238;-90
2023/12/30 00:52:04;;;;;;;3.40;2.57;;;;;;;10.59;90.17;97960.16;4102250;28;20628;-88
2023/12/30 00:54:07;;;;;;;3.97;2.70;;;;;;;10.60;90.16;97961.00;4098594;28;20695;-88
2023/12/30 00:56:13;;;;;;;3.20;2.40;;;;;;;10.60;90.42;97958.38;4102500;28;20636;-91
2023/12/30 00:58:16;;;;;;;4.20;2.60;;;;;;;10.52;90.17;97955.50;4110740;28;20675;-93
2023/12/30 01:00:20;;;;;;;4.10;2.47;;;;;;;10.45;91.32;97960.31;4120074;28;20673;-92
2023/12/30 01:02:23;;;;;;;3.40;2.40;;;;;;;10.45;90.75;97954.28;4119787;28;20686;-90
2023/12/30 01:04:28;;;;;;;3.03;2.50;;;;;;;10.40;91.02;97964.16;4099484;28;20648;-92
2023/12/30 01:06:31;;;;;;;4.90;2.43;;;;;;;10.40;91.13;97967.63;4103928;28;20694;-90
2023/12/30 01:08:34;;;;;;;4.33;2.77;;;;;;;10.39;91.01;97975.56;4100862;28;20715;-91
2023/12/30 01:10:38;;;;;;;3.17;2.53;;;;;;;10.36;92.33;97978.38;4104155;28;20624;-87
2023/12/30 01:12:43;;;;;;;3.70;2.43;;;;;;;10.36;93.34;97992.22;4083896;28;20633;-88
2023/12/30 01:14:46;;;;;;;3.93;2.50;;;;;;;10.37;93.31;97995.66;4103125;28;20699;-92
2023/12/30 01:16:49;;;;;;;3.80;2.03;;;;;;;10.35;93.13;97992.34;4088527;28;20668;-91
2023/12/30 01:18:52;;;;;;;4.50;2.60;;;;;;;10.38;93.03;97986.91;4091163;28;21056;-92
2023/12/30 01:20:55;;;;;;;3.90;2.63;;;;;;;10.38;93.20;97985.13;4100694;28;20683;-92
2023/12/30 01:22:59;;;;;;;3.40;2.60;;;;;;;10.31;93.72;97988.25;4113890;28;20660;-92
2023/12/30 01:25:02;;;;;;;3.50;2.80;;;;;;;10.26;95.02;97994.75;4101694;28;21326;-91
2023/12/30 01:27:10;;;;;;;2.90;1.90;;;;;;;10.22;93.90;98004.53;4104208;28;20619;-90
2023/12/30 01:29:14;;;;;;;3.50;2.20;;;;;;;10.24;93.97;98001.81;4099034;28;20624;-92
2023/12/30 01:31:18;;;;;;;3.42;2.03;;;;;;;10.32;94.35;98017.78;4098668;28;20624;-92
2023/12/30 01:33:22;;;;;;;3.20;2.40;;;;;;;10.37;95.46;98012.16;4082624;28;20795;-92
2023/12/30 01:35:26;;;;;;;4.80;2.10;;;;;;;10.43;95.16;98021.31;4093149;28;21867;-91
2023/12/30 01:37:28;;;;;;;3.50;2.10;;;;;;;10.43;95.57;98021.31;4101235;28;20636;-92
2023/12/30 01:39:31;;;;;;;5.50;2.50;;;;;;;10.45;95.71;98015.06;4084418;28;20625;-90
2023/12/30 01:41:35;;;;;;;3.13;2.47;;;;;;;10.48;96.35;98027.06;4100861;28;20756;-87
2023/12/30 01:43:39;;;;;;;3.67;3.20;;;;;;;10.48;96.81;98021.84;4098747;28;20676;-92
2023/12/30 01:45:43;;;;;;;2.70;2.13;;;;;;;10.50;96.62;98030.38;4102793;28;20628;-91
2023/12/30 01:47:47;;;;;;;4.00;2.37;;;;;;;10.51;96.23;98032.88;4105195;28;20667;-90
2023/12/30 01:49:51;;;;;;;3.70;2.40;;;;;;;10.54;96.39;98042.25;4093839;28;21229;-92
2023/12/30 01:51:54;;;;;;;4.03;2.60;;;;;;;10.56;96.72;98045.63;4104448;28;20616;-90
2023/12/30 01:53:58;;;;;;;5.40;2.73;;;;;;;10.58;98.09;98043.72;4088092;28;20749;-89
2023/12/30 01:56:01;;;;;;;3.73;2.57;;;;;;;10.56;98.04;98046.44;4102662;28;20695;-91
2023/12/30 01:58:05;;;;;;;4.33;2.83;;;;;;;10.50;97.89;98056.47;4108257;28;20618;-90
2023/12/30 02:00:09;;;;;;;4.07;2.67;;;;;;;10.49;98.01;98060.00;4102078;28;20989;-89
2023/12/30 02:02:16;;;;;;;3.63;2.90;;;;;;;10.48;98.56;98060.97;4105128;28;23057;-88
2023/12/30 02:04:20;;;;;;;4.00;2.57;;;;;;;10.49;98.50;98078.25;4120689;28;20626;-89
2023/12/30 02:06:24;;;;;;;3.43;2.77;;;;;;;10.48;99.12;98068.78;4122705;28;20651;-89
2023/12/30 02:08:28;;;;;;;4.00;2.50;;;;;;;10.41;100.00;98067.50;4114543;28;20631;-89
2023/12/30 02:10:31;;;;;;;4.17;2.50;;;;;;;10.36;100.00;98060.00;4103512;28;20627;-90
2023/12/30 02:12:34;;;;;;;3.50;2.57;;;;;;;10.33;100.00;98062.00;4107237;28;21248;-91
2023/12/30 02:14:38;;;;;;;3.60;2.73;;;;;;;10.39;100.00;98069.41;4115694;28;20659;-92
2023/12/30 02:16:42;;;;;;;3.27;2.40;;;;;;;10.42;100.00;98066.59;4088481;28;21194;-89
2023/12/30 02:18:48;;;;;;;3.27;2.37;;;;;;;10.45;99.83;98064.59;4108113;28;21244;-90
2023/12/30 02:20:51;;;;;;;4.47;2.97;;;;;;;10.44;100.00;98069.91;4109274;28;20667;-92
2023/12/30 02:22:57;;;;;;;3.27;2.60;;;;;;;10.44;100.00;98073.34;4105563;28;20652;-91
2023/12/30 02:25:02;;;;;;;3.47;2.47;;;;;;;10.45;100.00;98072.41;4089928;28;21023;-92
2023/12/30 02:27:05;;;;;;;4.40;3.30;;;;;;;10.48;100.00;98079.22;4103148;28;20727;-91
2023/12/30 02:29:09;;;;;;;5.70;3.00;;;;;;;10.49;100.00;98080.84;4103602;28;20640;-89
2023/12/30 02:31:12;;;;;;;3.53;2.63;;;;;;;10.50;100.00;98069.50;4104395;28;20637;-90
2023/12/30 02:33:16;;;;;;;4.40;2.40;;;;;;;10.39;100.00;98069.41;4104645;28;21221;-87
2023/12/30 02:35:19;;;;;;;4.97;2.70;;;;;;;10.34;100.00;98061.03;4082542;28;20652;-89
2023/12/30 02:37:22;;;;;;;3.60;2.50;;;;;;;10.30;100.00;98066.56;4087671;28;20633;-90
2023/12/30 02:39:27;;;;;;;5.07;2.70;;;;;;;10.32;100.00;98074.16;4087857;28;21272;-88
2023/12/30 02:41:29;;;;;;;4.20;2.63;;;;;;;10.36;100.00;98085.25;4080919;28;20628;-90
2023/12/30 02:43:36;;;;;;;2.57;2.07;;;;;;;10.38;100.00;98083.38;4110821;28;20667;-91
2023/12/30 02:45:38;;;;;;;6.03;2.67;;;;;;;10.38;100.00;98080.75;4106800;28;20998;-89
2023/12/30 02:47:42;;;;;;;2.90;2.30;;;;;;;10.37;100.00;98082.53;4123675;28;20631;-89
2023/12/30 02:49:46;;;;;;;3.33;2.70;;;;;;;10.36;100.00;98090.47;4103149;28;21197;-91
2023/12/30 02:51:50;;;;;;;4.10;2.67;;;;;;;10.37;100.00;98090.34;4094685;29;20723;-91
2023/12/30 02:53:56;;;;;;;3.07;2.43;;;;;;;10.38;100.00;98094.63;4104253;28;20670;-91
2023/12/30 02:56:00;;;;;;;3.07;2.60;;;;;;;10.41;100.00;98094.41;4104208;28;21181;-91
2023/12/30 02:58:04;;;;;;;4.07;2.93;;;;;;;10.43;100.00;98102.13;4088758;29;20633;-91
2023/12/30 03:00:08;;;;;;;5.40;2.73;;;;;;;10.43;100.00;98102.97;4118107;28;20677;-89
2023/12/30 03:02:13;;;;;;;4.50;2.93;;;;;;;10.46;100.00;98113.22;4100533;28;20652;-89
2023/12/30 03:04:17;;;;;;;3.20;2.30;;;;;;;10.48;100.00;98115.72;4098959;28;20633;-92
2023/12/30 03:06:20;;;;;;;3.60;2.60;;;;;;;10.46;100.00;98113.22;4105274;28;21825;-90
2023/12/30 03:08:23;;;;;;;5.10;2.57;;;;;;;10.44;100.00;98106.41;4105883;28;20631;-91
2023/12/30 03:10:26;;;;;;;3.13;2.57;;;;;;;10.44;100.00;98116.84;4097441;28;25497;-89
2023/12/30 03:12:32;;;;;;;4.03;2.90;;;;;;;10.43;100.00;98117.78;4102928;28;20686;-91
2023/12/30 03:14:35;;;;;;;5.73;3.10;;;;;;;10.40;100.00;98095.38;4083563;28;20655;-90
2023/12/30 03:16:38;;;;;;;5.50;2.60;;;;;;;10.39;100.00;98118.94;4105459;28;21099;-90
2023/12/30 03:18:41;;;;;;;4.47;3.07;;;;;;;10.39;100.00;98126.75;4084239;28;20634;-87
2023/12/30 03:20:45;;;;;;;3.90;2.83;;;;;;;10.40;100.00;98124.03;4114697;28;21032;-90
2023/12/30 03:22:48;;;;;;;4.53;2.60;;;;;;;10.38;100.00;98125.91;4093969;28;20814;-91
2023/12/30 03:24:52;;;;;;;7.00;2.80;;;;;;;10.39;100.00;98127.56;4087744;28;20718;-90
2023/12/30 03:26:55;;;;;;;5.50;3.30;;;;;;;10.40;100.00;98121.44;4102763;28;20636;-90
2023/12/30 03:29:00;;;;;;;5.30;3.30;;;;;;;10.40;100.00;98116.22;4088249;28;20772;-91
2023/12/30 03:31:02;;;;;;;4.03;2.90;;;;;;;10.39;100.00;98118.94;4121387;28;21085;-91
2023/12/30 03:33:06;;;;;;;4.30;3.13;;;;;;;10.41;100.00;98123.09;4088008;28;20630;-90
2023/12/30 03:35:10;;;;;;;3.63;2.73;;;;;;;10.43;100.00;98128.19;4102760;28;20667;-89
2023/12/30 03:37:14;;;;;;;4.33;3.27;;;;;;;10.43;100.00;98122.97;4088978;28;21176;-90
2023/12/30 03:39:18;;;;;;;4.30;3.10;;;;;;;10.46;100.00;98128.00;4088171;28;20621;-89
2023/12/30 03:41:20;;;;;;;4.20;2.97;;;;;;;10.45;100.00;98126.34;4106410;28;20636;-91
2023/12/30 03:43:24;;;;;;;4.90;3.27;;;;;;;10.39;100.00;98126.75;4087832;28;20680;-90
2023/12/30 03:45:29;;;;;;;3.20;2.70;;;;;;;10.29;100.00;98123.06;4100129;28;20633;-91
2023/12/30 03:47:32;;;;;;;3.97;2.83;;;;;;;10.25;100.00;98119.00;4108610;28;20624;-88
2023/12/30 03:49:36;;;;;;;3.80;3.03;;;;;;;10.19;100.00;98122.00;4089171;28;20684;-88
2023/12/30 03:51:39;;;;;;;4.03;2.67;;;;;;;10.23;100.00;98120.88;4118868;28;20631;-90
2023/12/30 03:53:43;;;;;;;4.33;2.70;;;;;;;10.23;100.00;98115.66;4103376;28;20620;-88
2023/12/30 03:55:48;;;;;;;4.47;3.00;;;;;;;10.24;100.00;98119.09;4104412;28;20818;-91
2023/12/30 03:57:53;;;;;;;4.07;2.40;;;;;;;10.24;100.00;98127.78;4089574;28;20621;-89
2023/12/30 03:59:56;;;;;;;5.17;2.90;;;;;;;10.27;100.00;98122.34;4101935;28;21182;-90
2023/12/30 04:02:01;;;;;;;3.97;2.43;;;;;;;10.29;100.00;98117.88;4089651;28;20672;-90
2023/12/30 04:04:05;;;;;;;4.13;3.10;;;;;;;10.31;100.00;98117.75;4090266;28;20641;-90
2023/12/30 04:06:17;;;;;;;3.80;2.77;;;;;;;10.33;100.00;98121.94;4102314;28;20667;-90
2023/12/30 04:08:20;;;;;;;3.80;2.80;;;;;;;10.32;100.00;98115.06;4093580;28;20622;-91
2023/12/30 04:10:25;;;;;;;3.30;2.60;;;;;;;10.35;100.00;98126.09;4088574;28;20652;-91
2023/12/30 04:12:30;;;;;;;3.37;2.37;;;;;;;10.35;100.00;98120.88;4101731;28;20738;-90
2023/12/30 04:14:34;;;;;;;4.63;3.20;;;;;;;10.37;100.00;98119.03;4103212;28;20656;-89
2023/12/30 04:16:53;;;;;;;6.63;3.33;;;;;;;10.32;100.00;98105.44;4089746;28;20665;-89
2023/12/30 04:18:58;;;;;;;4.30;2.80;;;;;;;10.33;100.00;98116.75;4118661;28;20631;-90
2023/12/30 04:21:00;;;;;;;4.80;2.83;;;;;;;10.35;100.00;98125.28;4101542;28;20648;-89
2023/12/30 04:23:04;;;;;;;4.80;2.83;;;;;;;10.27;100.00;98114.53;4101889;28;20711;-90
2023/12/30 04:25:08;;;;;;;3.40;2.90;;;;;;;10.19;100.00;98114.19;4090044;28;20652;-89
2023/12/30 04:27:12;;;;;;;3.63;2.73;;;;;;;10.12;100.00;98120.75;4102879;28;21654;-89
2023/12/30 04:29:15;;;;;;;4.90;3.30;;;;;;;10.08;100.00;98121.88;4094771;28;20642;-89
2023/12/30 04:31:27;;;;;;;4.10;3.20;;;;;;;10.02;100.00;98119.69;4087272;28;20625;-89
2023/12/30 04:33:30;;;;;;;6.20;3.27;;;;;;;10.04;100.00;98127.41;4100357;28;20641;-86
2023/12/30 04:35:34;;;;;;;4.50;3.73;;;;;;;10.05;100.00;98126.47;4094411;28;21132;-91
2023/12/30 04:38:05;;;;;;;3.80;2.85;;;;;;;9.96;100.00;98122.69;4082872;28;20665;-89
2023/12/30 04:40:09;;;;;;;4.50;3.40;;;;;;;9.92;100.00;98121.22;4121136;28;20659;-90
2023/12/30 04:42:14;;;;;;;3.60;2.75;;;;;;;9.96;100.00;98127.91;4107046;28;20624;-90
2023/12/30 04:44:17;;;;;;;3.47;2.40;;;;;;;10.01;100.00;98125.84;4120413;28;20211;-89
2023/12/30 04:46:32;;;;;;;4.40;2.80;;;;;;;9.99;100.00;98129.47;4102540;28;20636;-90
2023/12/30 04:48:36;;;;;;;4.10;2.90;;;;;;;9.85;100.00;98116.50;4109988;28;20615;-91
2023/12/30 04:50:41;;;;;;;3.90;2.60;;;;;;;9.81;100.00;98127.22;4124458;28;20718;-85
2023/12/30 04:52:43;;;;;;;3.50;2.58;;;;;;;9.73;100.00;98135.50;4120490;28;20697;-82
2023/12/30 04:54:47;;;;;;;4.00;2.88;;;;;;;9.66;100.00;98134.22;4102808;28;20232;-85
2023/12/30 04:57:03;;;;;;;3.50;2.30;;;;;;;9.69;100.00;98141.00;4107091;28;20221;-82
2023/12/30 04:59:07;;;;;;;3.70;2.40;;;;;;;9.71;100.00;98142.59;4108612;28;20627;-82
2023/12/30 05:01:11;;;;;;;4.00;2.50;;;;;;;9.68;100.00;98137.59;4102816;28;20609;-83
2023/12/30 05:03:14;;;;;;;3.53;2.53;;;;;;;9.69;100.00;98138.41;4107032;28;20628;-82
2023/12/30 05:05:18;;;;;;;11.80;3.78;;;;;;;9.65;100.00;98142.13;4119517;28;20246;-83
2023/12/30 05:07:23;;;;;;;4.63;2.23;;;;;;;9.63;100.00;98136.19;4101647;28;20201;-82
2023/12/30 05:09:26;;;;;;;5.40;3.10;;;;;;;9.58;100.00;98131.28;4106828;28;20639;-83
2023/12/30 05:11:30;;;;;;;3.30;2.58;;;;;;;9.48;100.00;98142.38;4108909;28;20647;-82
2023/12/30 05:13:33;;;;;;;4.40;3.22;;;;;;;9.50;100.00;98137.91;4106063;28;20650;-82
2023/12/30 05:15:36;;;;;;;3.58;2.20;;;;;;;9.50;100.00;98135.28;4107643;28;20690;-83
2023/12/30 05:17:39;;;;;;;4.25;2.25;;;;;;;9.54;100.00;98140.22;4108942;28;21119;-82
2023/12/30 05:19:43;;;;;;;3.90;2.70;;;;;;;9.58;100.00;98138.28;4106153;28;20617;-83
2023/12/30 05:21:51;;;;;;;3.10;2.35;;;;;;;9.65;100.00;98148.19;4088890;28;21033;-83
2023/12/30 05:23:55;;;;;;;3.30;2.23;;;;;;;9.68;100.00;98136.72;4091223;28;20303;-82
2023/12/30 05:25:58;;;;;;;2.90;2.15;;;;;;;9.70;100.00;98140.91;4083517;28;21038;-82
2023/12/30 05:28:01;;;;;;;4.27;2.70;;;;;;;9.70;100.00;98124.47;4110958;28;20205;-82
2023/12/30 05:30:07;;;;;;;4.43;2.60;;;;;;;9.67;100.00;98127.28;4110532;28;20628;-83
2023/12/30 05:32:11;;;;;;;2.70;2.33;;;;;;;9.64;100.00;98123.09;4110919;28;20730;-83
2023/12/30 05:34:14;;;;;;;3.67;1.73;;;;;;;9.65;100.00;98124.75;4110412;28;20797;-83
2023/12/30 05:36:27;;;;;;;4.03;2.20;;;;;;;9.62;100.00;98126.72;4095205;28;20748;-82
2023/12/30 05:38:30;;;;;;;3.45;2.70;;;;;;;9.57;100.00;98129.59;4110380;28;20216;-82
2023/12/30 05:40:35;;;;;;;3.47;2.07;;;;;;;9.53;100.00;98122.09;4095027;28;20335;-84
2023/12/30 05:42:38;;;;;;;3.37;2.07;;;;;;;9.52;100.00;98129.06;4106685;28;20637;-84
2023/12/30 05:44:42;;;;;;;2.92;2.38;;;;;;;9.56;100.00;98129.69;4107898;28;20727;-82
2023/12/30 05:46:45;;;;;;;2.47;2.00;;;;;;;9.58;100.00;98120.88;4090771;28;20206;-83
2023/12/30 05:48:49;;;;;;;2.20;1.50;;;;;;;9.53;100.00;98135.97;4106314;28;20590;-83
2023/12/30 05:50:51;;;;;;;3.60;2.03;;;;;;;9.57;100.00;98123.56;4102083;28;20619;-83
2023/12/30 05:52:54;;;;;;;2.80;2.00;;;;;;;9.65;100.00;98131.72;4109594;28;20655;-83
2023/12/30 05:54:58;;;;;;;2.53;1.80;;;;;;;9.71;100.00;98131.31;4107285;28;20649;-82
2023/12/30 05:57:02;;;;;;;3.15;1.77;;;;;;;9.77;100.00;98141.34;4105353;28;20303;-83
2023/12/30 05:59:06;;;;;;;2.38;1.73;;;;;;;9.82;100.00;98147.94;4107031;28;20212;-82
2023/12/30 06:01:09;;;;;;;3.23;1.97;;;;;;;9.84;100.00;98144.28;4120234;28;20240;-90
2023/12/30 06:03:13;;;;;;;3.87;1.90;;;;;;;9.86;100.00;98144.19;4106756;28;21319;-89
2023/12/30 06:05:16;;;;;;;2.53;1.47;;;;;;;9.89;100.00;98144.84;4108716;28;20633;-90
2023/12/30 06:07:20;;;;;;;2.27;1.70;;;;;;;9.95;100.00;98151.44;4104381;28;21715;-90
2023/12/30 06:09:23;;;;;;;4.20;1.90;;;;;;;10.01;100.00;98157.13;4093275;28;21036;-90
2023/12/30 06:11:27;;;;;;;2.80;1.83;;;;;;;10.06;100.00;98164.63;4111704;28;20728;-91
2023/12/30 06:13:33;;;;;;;2.47;1.47;;;;;;;10.08;100.00;98153.16;4111540;28;20702;-90
2023/12/30 06:15:36;;;;;;;2.35;1.58;;;;;;;10.10;100.00;98159.13;4105716;28;20720;-89
2023/12/30 06:17:40;;;;;;;3.13;2.15;;;;;;;10.14;100.00;98162.34;4113004;28;20213;-90
2023/12/30 06:19:43;;;;;;;3.47;2.10;;;;;;;10.19;100.00;98161.09;4095791;29;20218;-89
2023/12/30 06:21:49;;;;;;;2.70;1.63;;;;;;;10.19;100.00;98171.53;4091727;28;21004;-87
2023/12/30 06:23:52;;;;;;;3.60;2.33;;;;;;;10.17;100.00;98162.16;4091953;28;20687;-86
2023/12/30 06:25:56;;;;;;;4.20;2.13;;;;;;;10.17;100.00;98168.19;4111489;28;20731;-90
2023/12/30 06:27:59;;;;;;;2.77;1.90;;;;;;;10.18;100.00;98163.81;4095901;28;21595;-89
2023/12/30 06:30:05;;;;;;;2.63;1.97;;;;;;;10.19;100.00;98163.69;4092763;28;20621;-90
2023/12/30 06:32:08;;;;;;;2.37;1.50;;;;;;;10.21;100.00;98167.06;4110051;28;20629;-90
2023/12/30 06:34:11;;;;;;;2.57;1.63;;;;;;;10.24;100.00;98163.41;4090083;28;20730;-89
2023/12/30 06:36:37;;;;;;;2.80;1.90;;;;;;;10.29;100.00;98170.00;4091009;28;20629;-90
2023/12/30 06:38:44;;;;;;;4.07;2.37;;;;;;;10.34;99.96;98180.94;4095000;28;20678;-89
2023/12/30 06:40:47;;;;;;;3.60;2.33;;;;;;;10.37;99.63;98180.75;4109539;28;20675;-90
2023/12/30 06:42:50;;;;;;;3.57;1.80;;;;;;;10.37;99.97;98176.38;4109538;28;21170;-89
2023/12/30 06:44:54;;;;;;;3.90;2.00;;;;;;;10.39;100.00;98182.31;4106920;28;22106;-89
2023/12/30 06:46:57;;;;;;;4.63;2.50;;;;;;;10.40;99.62;98185.75;4093575;29;20620;-90
2023/12/30 06:49:02;;;;;;;5.40;2.00;;;;;;;10.40;100.00;98181.41;4122891;28;20619;-87
2023/12/30 06:51:21;;;;;;;5.80;2.07;;;;;;;10.42;99.76;98194.34;4109713;28;20663;-87
2023/12/30 06:53:23;;;;;;;2.97;1.57;;;;;;;10.43;99.47;98195.97;4110542;28;20636;-91
2023/12/30 06:55:27;;;;;;;3.30;1.80;;;;;;;10.44;100.00;98192.44;4114343;28;20664;-91
2023/12/30 06:57:40;;;;;;;3.53;1.70;;;;;;;10.45;99.00;98186.31;4103716;28;20675;-89
2023/12/30 06:59:44;;;;;;;2.47;1.40;;;;;;;10.46;99.46;98193.16;4102210;28;20637;-87
2023/12/30 07:01:48;;;;;;;5.00;1.53;;;;;;;10.45;99.86;98192.34;4111871;28;21580;-91
2023/12/30 07:03:52;;;;;;;4.73;1.60;;;;;;;10.48;99.36;98189.53;4110269;28;20640;-90
2023/12/30 07:05:57;;;;;;;4.90;1.80;;;;;;;10.49;99.18;98203.41;4112314;28;20668;-91
2023/12/30 07:08:00;;;;;;;2.50;1.70;;;;;;;10.48;99.48;98202.56;4105449;28;20657;-91
2023/12/30 07:10:05;;;;;;;3.03;2.23;;;;;;;10.50;98.91;98207.69;4110303;28;20679;-82
2023/12/30 07:12:08;;;;;;;2.77;1.40;;;;;;;10.49;99.75;98212.09;4092378;28;20621;-83
2023/12/30 07:14:12;;;;;;;2.53;1.20;;;;;;;10.46;99.39;98207.06;4123356;28;20723;-83
2023/12/30 07:16:25;;;;;;;2.27;1.30;;;;;;;10.50;98.34;98215.50;4099187;28;20624;-83
2023/12/30 07:18:27;;;;;;;2.70;1.50;;;;;;;10.51;99.33;98219.81;4109000;28;20683;-83
2023/12/30 07:20:32;;;;;;;2.43;1.20;;;;;;;10.49;99.50;98221.66;4095785;28;20700;-84
2023/12/30 07:22:35;;;;;;;2.10;1.10;;;;;;;10.48;99.53;98214.78;4109626;28;20627;-82
2023/12/30 07:24:39;;;;;;;3.47;1.30;;;;;;;10.50;99.51;98223.34;4111488;28;20731;-83
2023/12/30 07:26:54;;;;;;;2.90;1.20;;;;;;;10.51;99.61;98214.59;4121396;28;20715;-84
2023/12/30 07:28:59;;;;;;;3.30;1.20;;;;;;;10.50;99.69;98213.72;4105247;28;20631;-82
2023/12/30 07:31:03;;;;;;;3.43;1.60;;;;;;;10.46;99.15;98207.06;4105964;28;20715;-83
2023/12/30 07:33:07;;;;;;;2.20;1.20;;;;;;;10.41;99.90;98214.34;4120877;28;20631;-84
2023/12/30 07:35:11;;;;;;;4.30;1.30;;;;;;;10.40;100.00;98217.03;4107340;28;20667;-83
2023/12/30 07:37:25;;;;;;;2.40;1.30;;;;;;;10.35;99.37;98219.13;4111147;28;20632;-84
2023/12/30 07:39:29;;;;;;;2.67;1.10;;;;;;;10.34;100.00;98223.50;4091147;28;20629;-86
2023/12/30 07:41:32;;;;;;;2.30;1.20;;;;;;;10.31;100.00;98217.63;4108200;28;20695;-84
2023/12/30 07:43:36;;;;;;;4.13;2.20;;;;;;;10.29;100.00;98214.31;4117152;28;20652;-84
2023/12/30 07:45:39;;;;;;;3.70;1.73;;;;;;;10.26;100.00;98219.72;4111736;28;20640;-84
2023/12/30 07:47:43;;;;;;;2.90;1.90;;;;;;;10.22;100.00;98226.06;4092388;28;20728;-85
2023/12/30 07:49:47;;;;;;;3.93;1.33;;;;;;;10.25;100.00;98236.28;4107504;28;20636;-85
2023/12/30 07:51:53;;;;;;;2.60;1.40;;;;;;;10.25;100.00;98233.69;4104589;28;20640;-86
2023/12/30 07:53:57;;;;;;;1.83;0.90;;;;;;;10.28;100.00;98237.88;4091694;28;21272;-84
2023/12/30 07:56:01;;;;;;;2.17;1.40;;;;;;;10.32;100.00;98240.19;4092060;28;20712;-85
2023/12/30 07:58:04;;;;;;;2.73;1.40;;;;;;;10.33;100.00;98242.69;4103490;28;20663;-84
2023/12/30 08:00:09;;;;;;;4.00;1.20;;;;;;;10.28;100.00;98241.28;4093174;28;21039;-85
2023/12/30 08:02:14;;;;;;;2.30;1.53;;;;;;;10.31;100.00;98242.88;4091387;28;20646;-84
2023/12/30 08:04:17;;;;;;;2.57;1.63;;;;;;;10.35;100.00;98240.81;4110674;28;20636;-86
2023/12/30 08:06:21;;;;;;;3.13;1.43;;;;;;;10.36;100.00;98241.66;4108029;28;20720;-86
2023/12/30 08:08:25;;;;;;;2.90;1.70;;;;;;;10.34;100.00;98240.91;4106795;28;20639;-83
2023/12/30 08:10:30;;;;;;;2.23;1.20;;;;;;;10.32;100.00;98246.22;4104262;28;20635;-83
2023/12/30 08:12:35;;;;;;;2.67;1.50;;;;;;;10.32;100.00;98253.22;4102420;28;20784;-84
2023/12/30 08:14:39;;;;;;;2.17;1.20;;;;;;;10.38;100.00;98255.41;4090717;28;20664;-85
2023/12/30 08:16:42;;;;;;;2.10;1.30;;;;;;;10.44;100.00;98255.84;4109061;28;20732;-84
2023/12/30 08:18:46;;;;;;;2.53;1.50;;;;;;;10.50;100.00;98257.22;4108067;28;20664;-86
2023/12/30 08:20:51;;;;;;;2.10;1.20;;;;;;;10.55;100.00;98252.53;4094403;28;20704;-90
2023/12/30 08:22:56;;;;;;;1.97;1.17;;;;;;;10.57;100.00;98251.50;4105338;28;21018;-90
2023/12/30 08:24:58;;;;;;;2.43;1.50;;;;;;;10.61;100.00;98254.75;4107298;28;20635;-91
2023/12/30 08:27:04;;;;;;;3.50;1.30;;;;;;;10.66;100.00;98260.50;4108375;28;20739;-90
2023/12/30 08:29:09;;;;;;;2.00;1.20;;;;;;;10.66;100.00;98260.50;4122147;28;20655;-90
2023/12/30 08:31:11;;;;;;;4.63;1.50;;;;;;;10.69;100.00;98260.28;4102957;28;20659;-86
2023/12/30 08:33:15;;;;;;;3.67;1.80;;;;;;;10.72;100.00;98266.16;4106334;28;21948;-89
2023/12/30 08:35:20;;;;;;;2.20;1.40;;;;;;;10.72;100.00;98268.75;4105662;28;20636;-89
2023/12/30 08:37:24;;;;;;;3.93;2.67;;;;;;;10.75;100.00;98268.56;4108646;28;20655;-90
2023/12/30 08:39:28;;;;;;;6.73;4.83;;;;;;;10.77;100.00;98274.50;4112276;28;21129;-89
2023/12/30 08:41:33;;;;;;;7.00;4.97;;;;;;;10.79;100.00;98266.56;4092889;28;20726;-90
2023/12/30 08:43:38;;;;;;;6.37;4.10;;;;;;;10.80;100.00;98264.69;4109433;28;20651;-89
2023/12/30 08:45:42;;;;;;;4.93;2.60;;;;;;;10.80;100.00;98274.31;4105045;28;21182;-89
2023/12/30 08:47:46;;;;;;;4.33;3.40;;;;;;;10.85;100.00;98274.81;4106589;28;20636;-86
2023/12/30 08:49:50;;;;;;;4.40;2.60;;;;;;;10.87;100.00;98272.97;4104496;28;20700;-87
2023/12/30 08:51:53;;;;;;;4.77;2.77;;;;;;;10.88;100.00;98272.88;4108918;28;20687;-88
2023/12/30 08:53:57;;;;;;;7.00;4.53;;;;;;;10.90;100.00;98275.38;4105366;28;20727;-87
2023/12/30 08:56:02;;;;;;;5.37;3.37;;;;;;;10.92;100.00;98273.50;4107680;28;20637;-86
2023/12/30 08:58:06;;;;;;;4.00;3.10;;;;;;;10.93;100.00;98277.75;4104597;28;20664;-87
2023/12/30 09:00:12;;;;;;;7.00;4.40;;;;;;;10.90;100.00;98278.81;4104233;28;20704;-88
2023/12/30 09:02:15;;;;;;;4.30;2.80;;;;;;;10.91;100.00;98285.69;4102661;28;20735;-86
2023/12/30 09:04:19;;;;;;;3.40;2.47;;;;;;;10.89;100.00;98290.19;4088773;28;20617;-91
2023/12/30 09:06:26;;;;;;;5.33;2.57;;;;;;;10.91;100.00;98288.28;4086855;28;20633;-90
2023/12/30 09:08:29;;;;;;;4.73;2.90;;;;;;;10.86;100.00;98292.16;4106964;28;20632;-91
2023/12/30 09:10:33;;;;;;;8.47;5.00;;;;;;;10.80;100.00;98295.16;4109116;28;20638;-91
2023/12/30 09:12:36;;;;;;;3.90;2.23;;;;;;;10.80;100.00;98289.13;4105263;28;20970;-88
2023/12/30 09:14:40;;;;;;;3.70;2.50;;;;;;;10.78;100.00;98293.59;4109265;28;20624;-90
2023/12/30 09:16:56;;;;;;;4.10;2.30;;;;;;;10.77;100.00;98286.72;4108728;28;20636;-90
2023/12/30 09:19:00;;;;;;;7.03;2.67;;;;;;;10.80;100.00;98284.75;4106589;28;20649;-91
2023/12/30 09:21:03;;;;;;;3.70;2.50;;;;;;;10.85;100.00;98291.34;4107035;28;20703;-89
2023/12/30 09:23:07;;;;;;;2.70;2.23;;;;;;;10.87;100.00;98289.44;4119804;28;20635;-89
2023/12/30 09:25:10;;;;;;;3.17;2.30;;;;;;;10.91;100.00;98298.72;4106701;28;20711;-90
2023/12/30 09:27:13;;;;;;;3.57;2.17;;;;;;;10.89;100.00;98298.00;4106411;28;21185;-89
2023/12/30 09:29:17;;;;;;;4.20;2.37;;;;;;;10.93;100.00;98299.47;4092326;28;20627;-88
2023/12/30 09:31:29;;;;;;;4.43;2.70;;;;;;;10.96;100.00;98303.66;4107545;28;21278;-91
2023/12/30 09:33:34;;;;;;;5.40;3.30;;;;;;;11.00;100.00;98302.50;4104063;28;20616;-90
2023/12/30 09:35:37;;;;;;;7.73;5.20;;;;;;;11.03;100.00;98310.13;4088252;28;20644;-91
2023/12/30 09:37:41;;;;;;;3.53;2.70;;;;;;;11.07;100.00;98304.59;4108419;28;20646;-89
2023/12/30 09:39:43;;;;;;;3.67;2.67;;;;;;;11.15;100.00;98306.72;4109626;28;20686;-85
2023/12/30 09:41:47;;;;;;;4.30;2.87;;;;;;;11.19;100.00;98303.78;4106289;28;21231;-89
2023/12/30 09:43:50;;;;;;;3.97;2.67;;;;;;;11.23;100.00;98305.28;4103634;28;20628;-89
2023/12/30 09:45:54;;;;;;;3.10;2.23;;;;;;;11.27;100.00;98310.19;4094191;28;20691;-88